Time;durP1;ratioP1;P1;durP2;ratioP2;P2;SDS_P1;SDS_P2;PMS_P1;PMS_P2;Temp;Humidity;BMP_temperature;BMP_pressure;BME280_temperature;BME280_humidity;BME280_pressure;Samples;Min_cycle;Max_cycle;Signal;HPM_P1;HPM_P2
2022/12/23 00:01:28;;;;;;;;;0.00;0.00;;;;;13.83;87.65;100591.16;5034364;28;61267;-85
2022/12/23 00:03:57;;;;;;;;;0.00;0.00;;;;;13.81;87.90;100578.13;5017693;28;64505;-87
2022/12/23 00:06:22;;;;;;;;;0.00;0.00;;;;;13.82;87.92;100577.22;5036450;28;45268;-86
2022/12/23 00:08:48;;;;;;;;;0.00;0.00;;;;;13.86;87.97;100577.94;5034626;28;49049;-87
2022/12/23 00:11:18;;;;;;;;;1.00;0.00;;;;;13.88;87.74;100584.78;4999538;28;49252;-87
2022/12/23 00:16:29;;;;;;;;;0.00;0.00;;;;;13.93;88.17;100584.59;5015462;28;45336;-86
2022/12/23 00:18:54;;;;;;;;;0.00;0.00;;;;;13.94;87.68;100581.88;4998196;28;53843;-87
2022/12/23 00:21:20;;;;;;;;;1.25;0.00;;;;;13.96;87.93;100581.81;5015992;28;45318;-86
2022/12/23 00:23:47;;;;;;;;;0.00;0.00;;;;;13.94;87.63;100583.66;5015052;28;45545;-86
2022/12/23 00:26:15;;;;;;;;;0.00;0.00;;;;;13.91;87.63;100592.50;4997988;28;45390;-86
2022/12/23 00:28:40;;;;;;;;;0.00;0.00;;;;;13.88;87.96;100597.03;5014974;28;45511;-86
2022/12/23 00:31:06;;;;;;;;;1.50;0.00;;;;;13.84;88.10;100596.31;5015619;28;45415;-87
2022/12/23 00:33:34;;;;;;;;;1.00;0.00;;;;;13.80;88.02;100589.53;5014826;28;45570;-86
2022/12/23 00:35:59;;;;;;;;;0.00;0.00;;;;;13.74;88.55;100580.19;5014833;28;45316;-86
2022/12/23 00:44:00;;;;;;;;;0.00;0.00;;;;;13.64;89.47;100571.03;5035782;28;45701;-86
2022/12/23 00:46:26;;;;;;;;;0.50;0.00;;;;;13.62;89.34;100572.03;5035829;28;45451;-86
2022/12/23 00:51:36;;;;;;;;;1.00;0.00;;;;;13.62;89.46;100593.81;5034581;28;45425;-86
2022/12/23 00:54:01;;;;;;;;;0.00;0.00;;;;;13.62;89.56;100596.41;5034089;28;45374;-86
2022/12/23 00:56:27;;;;;;;;;0.00;0.00;;;;;13.63;89.80;100608.59;5034583;28;45325;-86
2022/12/23 00:58:52;;;;;;;;;0.00;0.00;;;;;13.63;90.34;100611.22;5034214;28;48787;-86
2022/12/23 01:06:45;;;;;;;;;0.00;0.00;;;;;13.66;90.21;100625.91;5034601;28;45457;-85
2022/12/23 01:09:10;;;;;;;;;2.50;0.00;;;;;13.68;90.47;100622.28;5032163;28;49029;-86
2022/12/23 01:11:36;;;;;;;;;0.00;0.00;;;;;13.67;90.20;100620.63;5015099;28;49863;-85
2022/12/23 01:14:01;;;;;;;;;0.00;0.00;;;;;13.66;90.46;100628.53;5013328;28;67109;-85
2022/12/23 01:16:26;;;;;;;;;0.00;0.00;;;;;13.65;90.41;100616.34;5015659;28;45333;-85
2022/12/23 01:18:52;;;;;;;;;0.00;0.00;;;;;13.65;90.79;100611.13;5014753;28;61865;-85
2022/12/23 01:21:17;;;;;;;;;0.00;0.00;;;;;13.64;90.66;100607.66;4996658;28;67014;-86
2022/12/23 01:23:42;;;;;;;;;0.00;0.00;;;;;13.62;90.80;100611.28;5013376;28;57580;-85
2022/12/23 01:26:08;;;;;;;;;0.00;0.00;;;;;13.62;91.05;100617.34;5014079;28;45480;-86
2022/12/23 01:28:34;;;;;;;;;0.00;0.00;;;;;13.64;91.10;100617.28;5015220;28;47661;-85
2022/12/23 01:31:02;;;;;;;;;0.00;0.00;;;;;13.65;90.77;100617.22;5015022;28;45654;-85
2022/12/23 01:33:28;;;;;;;;;0.00;0.00;;;;;13.67;91.04;100622.34;5014006;28;45949;-85
2022/12/23 01:36:05;;;;;;;;;0.00;0.00;;;;;13.68;90.92;100617.06;5014128;28;45477;-86
2022/12/23 01:38:31;;;;;;;;;0.00;0.00;;;;;13.70;91.28;100623.06;5014933;28;45509;-85
2022/12/23 01:40:56;;;;;;;;;1.00;0.00;;;;;13.70;90.82;100623.06;5015379;28;46328;-86
2022/12/23 01:43:22;;;;;;;;;1.00;0.00;;;;;13.69;90.93;100629.25;5033228;28;55799;-85
2022/12/23 01:45:48;;;;;;;;;0.75;0.00;;;;;13.69;91.07;100626.63;5033921;28;45397;-86
2022/12/23 01:48:23;;;;;;;;;0.00;0.00;;;;;13.72;91.04;100617.78;5033896;28;45435;-86
2022/12/23 01:50:54;;;;;;;;;3.00;0.00;;;;;13.70;91.10;100617.00;5033327;28;46733;-86
2022/12/23 01:53:29;;;;;;;;;0.25;0.00;;;;;13.69;91.47;100624.00;5036330;28;45783;-86
2022/12/23 01:55:59;;;;;;;;;0.00;0.00;;;;;13.68;91.09;100624.91;5037273;28;45376;-86
2022/12/23 01:58:37;;;;;;;;;0.00;0.00;;;;;13.70;91.45;100627.47;5038506;28;45276;-86
2022/12/23 02:03:47;;;;;;;;;0.00;0.00;;;;;13.63;91.49;100621.66;5037161;28;45644;-85
2022/12/23 02:09:18;;;;;;;;;0.00;0.00;;;;;13.64;91.88;100627.75;5036568;28;45354;-85
2022/12/23 02:11:59;;;;;;;;;0.00;0.00;;;;;13.64;91.71;100622.50;5016851;28;46620;-85
2022/12/23 02:17:45;;;;;;;;;1.00;0.00;;;;;13.64;92.13;100617.28;5018186;28;45298;-86
2022/12/23 02:20:29;;;;;;;;;0.00;0.00;;;;;13.67;91.70;100614.50;5032952;28;45346;-85
2022/12/23 02:23:16;;;;;;;;;0.00;0.00;;;;;13.67;92.14;100612.75;5016889;28;46779;-86
2022/12/23 02:25:50;;;;;;;;;0.00;0.00;;;;;13.69;91.98;100616.16;5017837;28;45562;-86
2022/12/23 02:28:24;;;;;;;;;0.25;0.00;;;;;13.72;91.96;100608.19;5017960;28;45231;-86
2022/12/23 02:30:57;;;;;;;;;0.00;0.00;;;;;13.75;92.03;100607.19;5016563;28;45346;-86
2022/12/23 02:33:39;;;;;;;;;0.00;0.00;;;;;13.76;91.60;100616.72;5016425;28;45480;-86
2022/12/23 02:36:19;;;;;;;;;0.00;0.00;;;;;13.78;91.60;100617.53;5016185;28;45476;-86
2022/12/23 02:39:28;;;;;;;;;2.00;0.00;;;;;13.79;91.19;100607.91;5016521;28;45405;-86
2022/12/23 02:42:01;;;;;;;;;0.00;0.00;;;;;13.80;91.09;100604.34;5018648;28;45636;-86
2022/12/23 02:44:37;;;;;;;;;0.25;0.00;;;;;13.80;91.11;100607.84;5036201;28;47510;-86
2022/12/23 02:47:09;;;;;;;;;0.50;0.50;;;;;13.79;91.32;100606.13;5037491;28;45602;-86
2022/12/23 02:49:41;;;;;;;;;0.75;0.00;;;;;13.79;90.75;100607.91;5035923;28;45475;-87
2022/12/23 02:52:12;;;;;;;;;0.00;0.00;;;;;13.79;90.64;100605.28;5036421;28;45254;-86
2022/12/23 02:54:42;;;;;;;;;0.00;0.00;;;;;13.80;90.53;100614.81;5036122;28;46391;-86
2022/12/23 02:57:10;;;;;;;;;0.75;0.00;;;;;13.78;90.27;100606.19;5019474;28;45452;-86
2022/12/23 02:59:42;;;;;;;;;0.00;0.00;;;;;13.78;90.29;100608.81;5019654;28;45345;-86
2022/12/23 03:02:07;;;;;;;;;0.00;0.00;;;;;13.75;90.41;100613.25;5036037;28;45282;-86
2022/12/23 03:04:32;;;;;;;;;3.00;1.25;;;;;13.72;89.78;100610.81;5034498;28;45365;-87
2022/12/23 03:06:59;;;;;;;;;2.00;0.00;;;;;13.71;89.72;100611.72;5036526;28;61873;-86
2022/12/23 03:09:24;;;;;;;;;0.00;0.00;;;;;13.70;89.63;100610.00;5032483;28;45270;-86
2022/12/23 03:11:57;;;;;;;;;0.00;0.00;;;;;13.70;89.52;100612.63;5017370;28;45453;-86
2022/12/23 03:15:05;;;;;;;;;0.50;0.00;;;;;13.70;89.42;100612.63;5015880;28;45451;-86
2022/12/23 03:17:40;;;;;;;;;1.00;0.00;;;;;13.71;89.13;100597.78;5008234;28;45442;-86
2022/12/23 03:20:08;;;;;;;;;0.00;0.00;;;;;13.70;89.54;100581.22;5032269;28;45488;-86
2022/12/23 03:22:38;;;;;;;;;0.00;0.00;;;;;13.71;89.48;100589.94;5017161;28;45345;-86
2022/12/23 03:25:20;;;;;;;;;0.75;0.00;;;;;13.72;89.12;100597.72;5015673;28;46657;-87
2022/12/23 03:28:00;;;;;;;;;1.75;1.00;;;;;13.72;89.11;100602.09;5015688;28;45692;-86
2022/12/23 03:30:26;;;;;;;;;3.50;0.00;;;;;13.70;89.18;100599.53;5015831;28;45467;-86
2022/12/23 03:32:54;;;;;;;;;0.00;0.00;;;;;13.70;88.90;100593.47;5015391;28;45489;-86
2022/12/23 03:35:29;;;;;;;;;0.00;0.00;;;;;13.68;88.91;100595.28;5015536;28;45353;-86
2022/12/23 03:37:57;;;;;;;;;0.00;0.00;;;;;13.68;88.81;100597.91;5015596;28;45308;-86
2022/12/23 03:40:28;;;;;;;;;1.50;0.25;;;;;13.68;88.59;100605.75;4998489;28;58816;-86
2022/12/23 03:43:00;;;;;;;;;0.00;0.00;;;;;13.67;88.52;100614.50;5033192;28;45393;-86
2022/12/23 03:45:30;;;;;;;;;1.00;0.00;;;;;13.66;88.40;100608.44;5035230;28;46502;-86
2022/12/23 03:48:00;;;;;;;;;0.00;0.00;;;;;13.65;88.45;100603.28;5034973;28;45575;-86
2022/12/23 03:50:27;;;;;;;;;2.75;0.00;;;;;13.64;88.55;100605.03;5035377;28;45367;-86
2022/12/23 03:52:59;;;;;;;;;0.00;0.00;;;;;13.62;88.45;100603.44;5018396;28;55008;-85
2022/12/23 03:55:40;;;;;;;;;0.00;0.00;;;;;13.63;88.50;100600.75;5036339;28;46742;-86
2022/12/23 03:58:28;;;;;;;;;0.75;0.00;;;;;13.62;88.36;100606.03;5018525;28;45461;-86
2022/12/23 04:01:04;;;;;;;;;1.25;0.00;;;;;13.62;88.50;100599.03;5036503;28;45389;-86
2022/12/23 04:03:52;;;;;;;;;0.00;0.00;;;;;13.62;88.42;100606.03;5034870;28;45432;-86
2022/12/23 04:06:19;;;;;;;;;1.00;1.00;;;;;13.63;88.47;100598.13;5034452;28;48341;-86
2022/12/23 04:08:45;;;;;;;;;0.00;0.00;;;;;13.61;88.46;100581.63;5034853;28;45558;-86
2022/12/23 04:11:10;;;;;;;;;0.00;0.00;;;;;13.58;88.37;100573.94;5017134;28;45571;-86
2022/12/23 04:13:36;;;;;;;;;1.00;0.00;;;;;13.56;88.71;100575.78;5014961;28;45346;-86
2022/12/23 04:16:02;;;;;;;;;4.00;0.00;;;;;13.54;88.34;100577.59;5014619;28;46179;-86
2022/12/23 04:18:27;;;;;;;;;1.00;0.00;;;;;13.52;88.74;100567.22;5014671;28;45376;-86
2022/12/23 04:20:53;;;;;;;;;1.50;0.75;;;;;13.51;88.61;100568.13;5016180;28;45310;-86
2022/12/23 04:23:18;;;;;;;;;0.50;0.00;;;;;13.50;88.98;100574.28;5016304;28;45423;-86
2022/12/23 04:25:43;;;;;;;;;1.50;0.00;;;;;13.51;88.77;100585.59;5015764;28;53464;-86
2022/12/23 04:28:09;;;;;;;;;0.00;0.00;;;;;13.49;88.81;100577.78;5014429;28;55607;-86
2022/12/23 04:30:34;;;;;;;;;0.75;0.00;;;;;13.47;88.64;100600.56;5014568;28;50022;-86
2022/12/23 04:33:00;;;;;;;;;0.75;0.00;;;;;13.45;88.79;100581.47;5013893;28;58983;-86
2022/12/23 04:35:25;;;;;;;;;0.25;0.00;;;;;13.47;88.71;100582.25;5013920;28;66768;-86
2022/12/23 04:37:50;;;;;;;;;1.25;0.00;;;;;13.45;88.82;100578.00;5014622;28;45415;-86
2022/12/23 04:40:16;;;;;;;;;0.00;0.00;;;;;13.46;88.91;100575.31;5014491;28;48538;-86
2022/12/23 04:42:41;;;;;;;;;0.00;0.00;;;;;13.46;88.73;100579.69;5031430;28;58013;-85
2022/12/23 04:45:07;;;;;;;;;2.00;0.00;;;;;13.48;89.04;100570.00;5035003;28;61644;-85
2022/12/23 04:47:32;;;;;;;;;1.75;0.00;;;;;13.47;88.96;100566.56;5035774;28;45333;-85
2022/12/23 04:49:58;;;;;;;;;1.00;0.00;;;;;13.49;89.04;100567.34;5034024;28;51775;-85
2022/12/23 04:52:23;;;;;;;;;1.50;0.00;;;;;13.52;88.92;100568.97;5035820;28;45459;-86
2022/12/23 04:54:48;;;;;;;;;0.00;0.00;;;;;13.56;89.13;100557.47;5050999;28;47510;-85
2022/12/23 04:57:14;;;;;;;;;1.25;0.50;;;;;13.57;89.01;100560.94;5035283;28;50276;-85
2022/12/23 04:59:39;;;;;;;;;1.00;0.00;;;;;13.58;88.88;100558.25;5033889;28;45325;-85
2022/12/23 05:02:05;;;;;;;;;2.00;0.25;;;;;13.61;89.05;100565.94;5034111;28;47392;-85
2022/12/23 05:04:31;;;;;;;;;0.00;0.00;;;;;13.62;88.98;100557.19;5035316;28;45562;-85
2022/12/23 05:06:56;;;;;;;;;2.00;0.00;;;;;13.64;88.73;100559.75;5017676;28;45400;-85
2022/12/23 05:09:22;;;;;;;;;0.50;0.00;;;;;13.67;88.79;100559.59;5047271;28;59746;-85
2022/12/23 05:11:47;;;;;;;;;0.25;0.00;;;;;13.69;89.13;100556.00;5015413;28;45529;-85
2022/12/23 05:14:12;;;;;;;;;1.00;0.00;;;;;13.71;88.86;100558.56;5014472;28;62692;-85
2022/12/23 05:16:38;;;;;;;;;0.50;0.00;;;;;13.75;89.01;100558.34;5013562;28;63608;-85
2022/12/23 05:19:03;;;;;;;;;1.50;0.75;;;;;13.79;88.87;100558.19;5014146;28;46914;-85
2022/12/23 05:21:28;;;;;;;;;3.25;1.00;;;;;13.81;88.73;100546.75;5014149;28;45503;-85
2022/12/23 05:23:54;;;;;;;;;0.50;0.00;;;;;13.81;89.15;100545.91;5013707;28;54174;-85
2022/12/23 05:26:20;;;;;;;;;2.00;0.25;;;;;13.83;88.86;100537.06;5030606;28;45858;-85
2022/12/23 05:28:45;;;;;;;;;1.75;0.00;;;;;13.85;88.81;100544.84;4999908;28;45390;-85
2022/12/23 05:31:11;;;;;;;;;1.50;1.50;;;;;13.86;89.00;100546.53;5017523;28;45374;-85
2022/12/23 05:33:37;;;;;;;;;0.25;0.25;;;;;13.84;88.76;100545.78;5018549;28;45397;-85
2022/12/23 05:36:03;;;;;;;;;1.00;1.00;;;;;13.85;88.99;100548.28;5016798;28;63323;-85
2022/12/23 05:38:28;;;;;;;;;0.50;0.00;;;;;13.84;89.23;100548.38;5017547;28;45322;-85
2022/12/23 05:40:54;;;;;;;;;0.00;0.00;;;;;13.82;89.57;100539.72;5018588;28;46112;-85
2022/12/23 05:43:19;;;;;;;;;0.00;0.00;;;;;13.81;89.23;100527.59;5036912;28;46291;-85
2022/12/23 05:45:45;;;;;;;;;2.00;0.00;;;;;13.82;89.36;100524.91;5037682;28;45388;-85
2022/12/23 05:48:11;;;;;;;;;0.00;0.00;;;;;13.81;89.57;100523.19;5037489;28;45470;-85
2022/12/23 05:50:38;;;;;;;;;1.00;0.00;;;;;13.83;89.77;100515.28;5038235;28;45515;-85
2022/12/23 05:53:03;;;;;;;;;0.00;0.00;;;;;13.82;90.00;100524.03;5020461;28;47908;-85
2022/12/23 05:55:29;;;;;;;;;0.00;0.00;;;;;13.83;89.73;100518.75;5037089;28;45514;-85
2022/12/23 05:57:54;;;;;;;;;2.00;0.00;;;;;13.84;89.51;100522.22;5037933;28;45432;-85
2022/12/23 06:00:20;;;;;;;;;0.00;0.00;;;;;13.85;89.77;100519.50;5020099;28;52311;-85
2022/12/23 06:02:45;;;;;;;;;1.50;0.00;;;;;13.86;90.44;100525.63;5053585;28;47349;-85
2022/12/23 06:05:11;;;;;;;;;0.00;0.00;;;;;13.83;89.98;100528.38;5020267;28;46054;-85
2022/12/23 06:07:37;;;;;;;;;1.00;0.00;;;;;13.83;90.03;100525.75;5038244;28;45451;-85
2022/12/23 06:10:05;;;;;;;;;0.00;0.00;;;;;13.83;90.21;100526.59;5036722;28;45597;-85
2022/12/23 06:12:30;;;;;;;;;2.00;0.00;;;;;13.83;90.31;100510.06;5036467;28;45431;-85
2022/12/23 06:14:55;;;;;;;;;0.00;0.00;;;;;13.84;90.64;100511.75;5037522;28;58361;-85
2022/12/23 06:17:21;;;;;;;;;1.00;0.00;;;;;13.86;90.16;100507.31;5019695;28;56763;-85
2022/12/23 06:19:47;;;;;;;;;2.25;0.00;;;;;13.85;90.46;100511.66;5036845;28;45389;-85
2022/12/23 06:22:13;;;;;;;;;1.00;1.00;;;;;13.86;90.38;100521.22;5037696;28;45416;-85
2022/12/23 06:24:38;;;;;;;;;0.00;0.00;;;;;13.86;90.50;100521.22;5037850;28;45842;-85
2022/12/23 06:27:04;;;;;;;;;0.00;0.00;;;;;13.87;90.43;100517.69;5036425;28;45327;-85
2022/12/23 06:29:29;;;;;;;;;0.00;0.00;;;;;13.86;90.20;100523.84;5036686;28;45379;-85
2022/12/23 06:31:54;;;;;;;;;0.00;0.00;;;;;13.86;90.55;100523.00;5035857;28;62049;-85
2022/12/23 06:34:20;;;;;;;;;0.00;0.00;;;;;13.87;90.43;100508.97;5036508;28;45377;-85
2022/12/23 06:36:45;;;;;;;;;0.00;0.00;;;;;13.88;90.51;100498.44;5036660;28;45391;-85
2022/12/23 06:39:11;;;;;;;;;0.00;0.00;;;;;13.88;90.57;100495.00;5019030;28;65866;-85
2022/12/23 06:41:36;;;;;;;;;0.00;0.00;;;;;13.89;90.66;100494.06;5019071;28;47171;-85
2022/12/23 06:44:01;;;;;;;;;1.00;0.00;;;;;13.90;90.75;100493.16;5035851;28;54297;-85
2022/12/23 06:46:27;;;;;;;;;1.00;1.00;;;;;13.91;90.99;100490.47;5035991;28;53921;-85
2022/12/23 06:48:52;;;;;;;;;0.00;0.00;;;;;13.91;90.56;100492.22;5036496;28;45605;-85
2022/12/23 06:51:18;;;;;;;;;0.00;0.00;;;;;13.93;90.86;100485.16;5037018;28;45570;-85
2022/12/23 06:53:43;;;;;;;;;0.00;0.00;;;;;13.96;90.54;100473.69;5037355;28;45415;-85
2022/12/23 06:56:08;;;;;;;;;0.00;0.00;;;;;13.94;90.65;100477.22;5052178;28;53879;-85
2022/12/23 06:58:34;;;;;;;;;0.00;0.00;;;;;13.98;90.23;100471.84;5035653;28;56919;-85
2022/12/23 07:01:00;;;;;;;;;0.00;0.00;;;;;13.98;90.37;100466.63;5036009;28;46171;-85
2022/12/23 07:03:25;;;;;;;;;0.00;0.00;;;;;13.98;90.45;100467.47;5035601;28;54271;-85
2022/12/23 07:05:51;;;;;;;;;2.00;0.00;;;;;13.99;90.67;100463.94;5037355;28;45836;-85
2022/12/23 07:08:16;;;;;;;;;0.00;0.00;;;;;14.02;90.40;100470.78;5042029;28;53693;-85
2022/12/23 07:10:42;;;;;;;;;0.00;0.00;;;;;14.02;90.48;100466.41;5038397;28;46747;-85
2022/12/23 07:13:07;;;;;;;;;1.00;0.00;;;;;14.05;90.39;100460.19;5039176;28;45358;-85
2022/12/23 07:15:32;;;;;;;;;0.50;0.00;;;;;14.08;90.10;100457.44;5057129;28;45560;-85
2022/12/23 07:17:58;;;;;;;;;0.00;0.00;;;;;14.09;90.20;100452.09;5056429;28;63897;-86
2022/12/23 07:20:23;;;;;;;;;0.00;0.00;;;;;14.09;90.14;100457.31;5056371;28;59702;-85
2022/12/23 07:22:49;;;;;;;;;0.00;0.00;;;;;14.11;89.61;100462.50;5038529;28;60278;-85
2022/12/23 07:25:15;;;;;;;;;0.00;0.00;;;;;14.11;90.17;100446.78;5056693;28;45412;-85
2022/12/23 07:27:41;;;;;;;;;0.00;0.00;;;;;14.16;90.10;100449.19;5056977;28;45644;-85
2022/12/23 07:30:07;;;;;;;;;0.00;0.00;;;;;14.16;89.66;100450.03;5038717;28;46176;-85
2022/12/23 07:32:32;;;;;;;;;0.00;0.00;;;;;14.19;89.81;100441.19;5056871;28;45757;-86
2022/12/23 07:34:58;;;;;;;;;0.00;0.00;;;;;14.20;89.53;100451.56;5039008;28;45346;-85
2022/12/23 07:37:23;;;;;;;;;0.00;0.00;;;;;14.21;89.59;100445.44;5056779;28;45409;-85
2022/12/23 07:39:48;;;;;;;;;0.00;0.00;;;;;14.23;89.48;100448.81;5037731;28;59434;-86
2022/12/23 07:42:14;;;;;;;;;0.00;0.00;;;;;14.25;89.74;100449.59;5038022;28;61422;-85
2022/12/23 07:44:39;;;;;;;;;0.00;0.00;;;;;14.25;89.53;100444.34;5038849;28;45301;-85
2022/12/23 07:47:04;;;;;;;;;0.00;0.00;;;;;14.26;89.58;100451.31;5038396;28;55367;-85
2022/12/23 07:49:30;;;;;;;;;0.25;0.00;;;;;14.28;89.26;100456.44;5056463;28;46403;-85
2022/12/23 07:51:55;;;;;;;;;0.00;0.00;;;;;14.29;89.21;100455.53;5037952;28;45349;-85
2022/12/23 07:54:21;;;;;;;;;0.00;0.00;;;;;14.30;89.15;100458.06;5038042;28;51843;-85
2022/12/23 07:56:47;;;;;;;;;0.00;0.00;;;;;14.29;88.99;100443.28;5056736;28;45493;-85
2022/12/23 07:59:12;;;;;;;;;0.00;0.00;;;;;14.30;89.28;100444.97;5038416;28;46328;-85
2022/12/23 08:01:37;;;;;;;;;0.00;0.00;;;;;14.32;88.81;100443.13;5021891;28;45404;-85
2022/12/23 08:04:03;;;;;;;;;0.00;0.00;;;;;14.34;89.47;100435.22;5037982;28;55104;-86
2022/12/23 08:06:28;;;;;;;;;0.00;0.00;;;;;14.36;89.08;100433.38;5056511;28;45302;-85
2022/12/23 08:08:53;;;;;;;;;0.00;0.00;;;;;14.36;89.07;100441.22;5034232;28;45565;-85
2022/12/23 08:11:19;;;;;;;;;0.00;0.00;;;;;14.38;88.76;100436.75;5017118;28;45313;-85
2022/12/23 08:13:47;;;;;;;;;0.00;0.00;;;;;14.38;89.07;100434.13;5015325;28;45434;-85
2022/12/23 08:16:12;;;;;;;;;0.00;0.00;;;;;14.40;88.65;100426.22;5015055;28;45438;-85
2022/12/23 08:18:39;;;;;;;;;0.00;0.00;;;;;14.39;88.70;100417.47;4998370;28;47928;-85
2022/12/23 08:21:11;;;;;;;;;0.00;0.00;;;;;14.40;88.93;100413.13;5016047;28;45345;-85
2022/12/23 08:23:36;;;;;;;;;0.00;0.00;;;;;14.41;88.70;100399.94;5015903;28;45479;-85
2022/12/23 08:26:03;;;;;;;;;0.00;0.00;;;;;14.41;88.53;100405.19;5014526;28;56920;-85
2022/12/23 08:28:29;;;;;;;;;0.00;0.00;;;;;14.43;88.26;100408.56;5015823;28;46089;-85
2022/12/23 08:31:01;;;;;;;;;0.00;0.00;;;;;14.44;88.47;100402.38;5015985;28;45532;-86
2022/12/23 08:33:26;;;;;;;;;0.00;0.00;;;;;14.46;88.36;100403.16;5014852;28;45467;-86
2022/12/23 08:35:53;;;;;;;;;0.00;0.00;;;;;14.48;88.36;100405.72;5014348;28;55954;-85
2022/12/23 08:38:19;;;;;;;;;0.00;0.00;;;;;14.49;88.50;100403.00;4997782;28;47751;-85
2022/12/23 08:40:44;;;;;;;;;0.00;0.00;;;;;14.50;88.31;100404.72;5015657;28;45263;-85
2022/12/23 08:43:09;;;;;;;;;0.00;0.00;;;;;14.51;88.33;100406.41;5017968;28;45484;-86
2022/12/23 08:45:37;;;;;;;;;0.00;0.00;;;;;14.53;88.46;100386.22;5018007;28;45469;-86
2022/12/23 08:48:03;;;;;;;;;0.00;0.00;;;;;14.55;88.36;100385.31;5035593;28;45553;-85
2022/12/23 08:50:28;;;;;;;;;0.25;0.00;;;;;14.55;88.42;100380.06;5034324;28;45657;-86
2022/12/23 08:52:54;;;;;;;;;0.00;0.00;;;;;14.52;88.31;100384.53;5033872;28;46171;-85
2022/12/23 08:55:19;;;;;;;;;0.00;0.00;;;;;14.50;88.52;100365.44;5034022;28;56781;-86
2022/12/23 08:57:44;;;;;;;;;0.00;0.00;;;;;14.51;88.48;100371.50;5037098;28;48336;-86
2022/12/23 09:00:10;;;;;;;;;0.00;0.00;;;;;14.53;88.25;100351.31;5036894;28;45578;-86
2022/12/23 09:02:36;;;;;;;;;0.00;0.00;;;;;14.55;88.50;100341.63;5035871;28;45460;-87
2022/12/23 09:05:01;;;;;;;;;0.00;0.00;;;;;14.56;88.16;100321.50;5038528;28;45580;-87
2022/12/23 09:07:26;;;;;;;;;0.00;0.00;;;;;14.55;88.29;100302.31;5037597;28;45459;-86
2022/12/23 09:09:52;;;;;;;;;1.75;0.00;;;;;14.57;88.29;100290.03;5030380;28;60049;-86
2022/12/23 09:12:17;;;;;;;;;0.00;0.00;;;;;14.57;87.82;100305.75;5019714;28;45388;-87
2022/12/23 09:14:46;;;;;;;;;0.00;0.00;;;;;14.60;87.99;100297.75;5019246;28;45500;-86
2022/12/23 09:17:12;;;;;;;;;0.00;0.00;;;;;14.61;87.97;100283.69;5018280;28;46613;-86
2022/12/23 09:19:37;;;;;;;;;1.00;0.00;;;;;14.62;87.71;100329.94;5019012;28;45397;-87
2022/12/23 09:22:02;;;;;;;;;1.50;0.00;;;;;14.63;87.78;100342.09;5017490;28;45398;-86
2022/12/23 09:24:28;;;;;;;;;0.00;0.00;;;;;14.65;87.76;100342.00;5018020;28;45516;-87
2022/12/23 09:26:53;;;;;;;;;1.00;0.00;;;;;14.67;87.60;100348.00;5001298;28;47348;-86
2022/12/23 09:29:18;;;;;;;;;0.00;0.00;;;;;14.69;87.29;100362.75;5017428;28;45330;-87
2022/12/23 09:31:44;;;;;;;;;0.00;0.00;;;;;14.73;87.54;100362.56;5018600;28;51503;-87
2022/12/23 09:34:09;;;;;;;;;1.00;0.00;;;;;14.75;87.65;100358.97;5018905;28;45396;-86
2022/12/23 09:36:35;;;;;;;;;0.50;0.00;;;;;14.76;87.36;100380.75;5017299;28;46337;-87
2022/12/23 09:39:01;;;;;;;;;0.00;0.00;;;;;14.78;87.63;100378.91;5017977;28;45424;-87
2022/12/23 09:42:03;;;;;;;;;0.00;0.00;;;;;14.80;87.27;100384.91;5023404;28;45308;-87
2022/12/23 09:44:47;;;;;;;;;0.00;0.00;;;;;14.81;87.14;100366.47;5037690;28;45437;-86
2022/12/23 09:47:19;;;;;;;;;1.00;0.00;;;;;14.85;87.23;100375.88;5038686;28;45473;-85
2022/12/23 09:49:48;;;;;;;;;0.00;0.00;;;;;14.89;87.02;100377.44;5037017;28;45486;-85
2022/12/23 09:52:21;;;;;;;;;0.00;0.00;;;;;14.89;86.72;100379.19;5037360;28;45427;-85
2022/12/23 09:54:50;;;;;;;;;0.00;0.00;;;;;14.88;86.80;100362.63;5037236;28;45395;-84
2022/12/23 09:57:50;;;;;;;;;0.00;0.00;;;;;14.91;86.59;100374.69;5036935;28;47441;-85
2022/12/23 10:00:19;;;;;;;;;0.00;0.00;;;;;14.93;86.86;100364.97;5037010;28;45283;-85
2022/12/23 10:03:19;;;;;;;;;0.00;0.00;;;;;14.96;86.88;100379.72;5037391;28;45372;-86
2022/12/23 10:06:00;;;;;;;;;0.00;0.00;;;;;14.99;86.00;100366.44;5036969;28;45566;-87
2022/12/23 10:08:30;;;;;;;;;0.00;0.00;;;;;15.01;86.17;100372.47;5044405;28;45837;-87
2022/12/23 10:11:00;;;;;;;;;1.00;0.00;;;;;15.02;86.52;100361.88;5039983;28;45583;-87
2022/12/23 10:13:38;;;;;;;;;0.00;0.00;;;;;15.05;86.09;100356.47;5039865;28;45385;-87
2022/12/23 10:16:12;;;;;;;;;0.00;0.00;;;;;15.09;85.86;100344.88;5040263;28;45420;-86
2022/12/23 10:19:05;;;;;;;;;0.00;0.00;;;;;15.13;86.10;100340.31;5039963;28;45475;-88
2022/12/23 10:21:45;;;;;;;;;1.00;0.00;;;;;15.16;86.00;100347.19;5058077;28;45530;-87
2022/12/23 10:24:31;;;;;;;;;0.00;0.00;;;;;15.18;85.57;100342.72;5023451;28;45649;-87
2022/12/23 10:27:00;;;;;;;;;0.00;0.00;;;;;15.18;85.48;100361.06;5040046;28;45469;-87
2022/12/23 10:29:30;;;;;;;;;0.00;0.00;;;;;15.16;85.86;100353.28;5023073;28;48206;-87
2022/12/23 10:32:16;;;;;;;;;0.00;0.00;;;;;15.15;86.00;100348.94;5057763;28;45461;-88
2022/12/23 10:35:04;;;;;;;;;0.00;0.00;;;;;15.15;85.96;100340.25;5039580;28;45400;-87
2022/12/23 10:37:48;;;;;;;;;0.00;0.00;;;;;15.17;86.36;100349.72;5057883;28;45456;-87
2022/12/23 10:40:32;;;;;;;;;0.00;0.00;;;;;15.19;85.90;100357.50;5023013;28;48753;-87
2022/12/23 10:43:30;;;;;;;;;0.00;0.00;;;;;15.19;86.22;100350.50;5039729;28;45360;-87
2022/12/23 10:46:31;;;;;;;;;0.00;0.00;;;;;15.22;85.98;100350.31;5039926;28;45407;-87
2022/12/23 10:49:21;;;;;;;;;0.25;0.00;;;;;15.25;85.96;100331.81;5039440;28;45507;-87
2022/12/23 10:51:50;;;;;;;;;0.50;0.00;;;;;15.34;86.26;100326.97;5057255;28;45747;-87
2022/12/23 10:54:21;;;;;;;;;0.00;0.00;;;;;15.40;85.49;100321.41;5039644;28;45685;-87
2022/12/23 10:56:46;;;;;;;;;0.00;0.00;;;;;15.49;85.22;100319.09;5039596;28;45411;-87
2022/12/23 10:59:14;;;;;;;;;0.00;0.00;;;;;15.58;85.09;100306.41;5038937;28;60465;-87
2022/12/23 11:01:42;;;;;;;;;0.00;0.00;;;;;15.62;84.71;100314.03;5039284;28;46287;-86
2022/12/23 11:04:18;;;;;;;;;0.00;0.00;;;;;15.66;84.38;100325.19;5038886;28;45397;-87
2022/12/23 11:06:51;;;;;;;;;0.00;0.00;;;;;15.68;84.30;100334.66;5039521;28;45389;-87
2022/12/23 11:09:21;;;;;;;;;0.00;0.00;;;;;15.66;84.02;100336.53;5039222;28;45450;-86
2022/12/23 11:11:57;;;;;;;;;0.00;0.00;;;;;15.65;83.92;100340.06;5039325;28;45378;-86
2022/12/23 11:14:35;;;;;;;;;0.00;0.00;;;;;15.70;83.74;100341.59;5039251;28;45682;-87
2022/12/23 11:17:00;;;;;;;;;0.00;0.00;;;;;15.75;83.62;100352.69;5056886;28;45388;-87
2022/12/23 11:19:26;;;;;;;;;0.00;0.00;;;;;15.73;83.05;100346.66;5039130;28;45511;-86
2022/12/23 11:21:54;;;;;;;;;0.00;0.00;;;;;15.75;83.43;100360.56;5038991;28;46086;-87
2022/12/23 11:24:21;;;;;;;;;0.00;0.00;;;;;15.78;83.08;100391.91;5022244;28;45334;-87
2022/12/23 11:27:01;;;;;;;;;0.00;0.00;;;;;15.79;82.97;100355.06;5056334;28;45226;-87
2022/12/23 11:29:34;;;;;;;;;0.75;0.00;;;;;15.85;82.99;100352.09;5056765;28;45603;-86
2022/12/23 11:32:02;;;;;;;;;1.00;0.00;;;;;15.98;82.12;100362.72;5038474;28;45494;-87
2022/12/23 11:34:35;;;;;;;;;0.00;0.00;;;;;16.06;82.14;100334.28;5039105;28;45677;-87
2022/12/23 11:37:00;;;;;;;;;0.00;0.00;;;;;16.13;81.88;100342.63;5039096;28;45547;-87
2022/12/23 11:39:29;;;;;;;;;0.00;0.00;;;;;16.16;81.88;100352.97;5022224;28;45547;-87
2022/12/23 11:42:14;;;;;;;;;0.00;0.00;;;;;16.21;81.13;100361.41;5038728;28;46173;-87
2022/12/23 11:44:46;;;;;;;;;0.00;0.00;;;;;16.28;80.65;100355.81;5022130;28;45415;-88
2022/12/23 11:47:20;;;;;;;;;0.00;0.00;;;;;16.31;80.74;100353.84;5038614;28;45350;-87
2022/12/23 11:49:51;;;;;;;;;0.00;0.00;;;;;16.34;80.59;100342.28;5056715;28;45551;-87
2022/12/23 11:52:19;;;;;;;;;0.00;0.00;;;;;16.42;79.84;100340.06;5038483;28;45409;-87
2022/12/23 11:54:53;;;;;;;;;0.00;0.00;;;;;16.69;79.45;100350.69;5038731;28;45764;-87
2022/12/23 11:57:30;;;;;;;;;0.00;0.00;;;;;17.02;78.80;100339.09;5056664;28;45326;-87
2022/12/23 11:59:59;;;;;;;;;0.25;0.00;;;;;17.14;77.35;100346.22;5056339;28;45282;-86